Terminal Aerodrome Forecast
Issued by NWS

Home | Current Version | Previous Version | Text Only | Print | Product List | Glossary On
Versions: 1 2 3 4 5 6 7 8 9 10 11 12 13
000
FTAK31 PAJN 080500
TAFAJN
TAF
PAJN 080525Z 0806/0906 29005KT P6SM VCSH SCT040 OVC060
     FM081000 VRB03KT P6SM -RA BKN035 OVC050
     FM081600 09005KT P6SM VCSH SCT035 OVC060
     FM082200 10008KT P6SM VCSH SCT050 BKN100=

USA.gov is the U.S. government's official web portal to all federal, state and local government web resources and services.